This is the latest recevied weather packets stored in our database for station/object W5HKR. If no packets are shown the sender has not sent any weather packets the latest 10 day(s).
| Time | Temp. | Humidity | Pressure | Rain* | Wind** | Luminosity | Snow |
|---|---|---|---|---|---|---|---|
| 1777391558 | 18.33° C | 91% | 990.6 hPa | 0 mm | - | - | - |
| 1777391306 | 26.11° C | 85% | 984.8 hPa | 0 mm | - | - | - |
| 1777391007 | 26.11° C | 85% | 985 hPa | 0 mm | - | - | - |
| 1777390707 | 18.33° C | 91% | 990.6 hPa | 0 mm | - | - | - |
| 1777390478 | 18.33° C | 91% | 990.6 hPa | 0 mm | - | - | - |
| 1777390407 | 26.11° C | 86% | 984.5 hPa | 0 mm | - | - | - |
| 1777390106 | 26.11° C | 86% | 984.4 hPa | 0 mm | - | - | - |
| 1777389806 | 26.11° C | 86% | 984.8 hPa | 0 mm | - | - | - |
| 1777389507 | 18.33° C | 91% | 990.6 hPa | 0 mm | - | - | - |
| 1777389399 | 26.11° C | 87% | 985.1 hPa | 0 mm | - | - | - |
| 1777389206 | 18.33° C | 91% | 990.6 hPa | 0 mm | - | - | - |
| 1777388907 | 26.11° C | 86% | 984.8 hPa | 0 mm | - | - | - |
| 1777388607 | 18.33° C | 91% | 990.6 hPa | 0 mm | - | - | - |
| 1777388306 | 25.56° C | 88% | 984.1 hPa | 0 mm | - | - | - |
| 1777388006 | 25° C | 89% | 984.6 hPa | 0 mm | - | - | - |
| 1777387406 | 18.33° C | 91% | 990.6 hPa | 0 mm | - | - | - |
| 1777387237 | 25° C | 90% | 984.8 hPa | 0 mm | - | - | - |
| 1777387107 | 25° C | 90% | 984.6 hPa | 0 mm | - | - | - |
| 1777386806 | 25° C | 91% | 984.4 hPa | 0 mm | - | - | - |
| 1777386507 | 18.33° C | 91% | 990.6 hPa | 0 mm | - | - | - |
| 1777386206 | 24.44° C | 91% | 984.9 hPa | 0 mm | - | - | - |
| 1777386158 | 18.33° C | 91% | 990.6 hPa | 0 mm | - | - | - |
| 1777385907 | 18.33° C | 91% | 990.6 hPa | 0 mm | - | - | - |
| 1777385607 | 18.33° C | 91% | 990.6 hPa | 0 mm | - | - | - |
| 1777385306 | 18.33° C | 91% | 990.6 hPa | 0 mm | - | - | - |
* Rain latest hour (hover to see other rain measurements)
** Current wind speed in m/s (hover to see current wind gust speed)